Time;durP1;ratioP1;P1;durP2;ratioP2;P2;SDS_P1;SDS_P2;PMS_P1;PMS_P2;Temp;Humidity;BMP_temperature;BMP_pressure;BME280_temperature;BME280_humidity;BME280_pressure;Samples;Min_cycle;Max_cycle;Signal;HPM_P1;HPM_P2
2024/01/21 00:00:44;;;;;;;0.75;0.47;;;;;;;7.53;100.00;99363.09;5064887;28;20055;-50
2024/01/21 00:03:11;;;;;;;1.95;0.45;;;;;;;7.49;100.00;99362.22;5067861;28;20688;-51
2024/01/21 00:05:39;;;;;;;2.13;0.40;;;;;;;7.46;100.00;99360.16;5050259;28;20049;-46
2024/01/21 00:08:06;;;;;;;3.65;0.70;;;;;;;7.42;100.00;99356.53;5047886;28;20064;-47
2024/01/21 00:10:34;;;;;;;1.80;0.60;;;;;;;7.40;100.00;99369.03;5066982;28;20052;-49
2024/01/21 00:13:01;;;;;;;0.75;0.52;;;;;;;7.37;100.00;99354.03;5050330;28;20040;-47
2024/01/21 00:15:28;;;;;;;2.63;0.30;;;;;;;7.35;100.00;99348.09;5063953;28;20052;-47
2024/01/21 00:17:56;;;;;;;2.88;0.52;;;;;;;7.31;100.00;99348.00;5068564;28;20459;-49
2024/01/21 00:20:23;;;;;;;1.02;0.50;;;;;;;7.29;100.00;99355.84;5068429;28;20041;-50
2024/01/21 00:22:50;;;;;;;0.70;0.32;;;;;;;7.27;100.00;99363.66;5068608;28;20048;-52
2024/01/21 00:25:18;;;;;;;3.97;1.00;;;;;;;7.25;100.00;99381.69;5068607;28;20044;-49
2024/01/21 00:27:45;;;;;;;3.63;1.08;;;;;;;7.23;100.00;99387.53;5068733;28;20056;-51
2024/01/21 00:30:13;;;;;;;3.83;1.00;;;;;;;7.21;100.00;99395.34;5068387;28;20053;-49
2024/01/21 00:32:40;;;;;;;4.65;1.55;;;;;;;7.18;100.00;99395.25;5068924;28;20052;-50
2024/01/21 00:35:08;;;;;;;2.30;0.60;;;;;;;7.16;100.00;99394.81;5067718;28;20067;-53
2024/01/21 00:37:35;;;;;;;1.77;0.70;;;;;;;7.13;100.00;99395.53;5068516;28;20067;-48
2024/01/21 00:40:05;;;;;;;1.48;0.50;;;;;;;7.10;100.00;99404.47;5068849;28;20132;-47
2024/01/21 00:42:32;;;;;;;1.52;0.50;;;;;;;7.07;100.00;99418.97;5067192;28;20064;-47
2024/01/21 00:45:00;;;;;;;0.95;0.30;;;;;;;7.06;100.00;99431.13;5068431;28;20059;-49
2024/01/21 00:47:27;;;;;;;2.70;0.30;;;;;;;7.04;100.00;99434.22;5067355;28;20071;-50
2024/01/21 00:49:54;;;;;;;1.88;0.47;;;;;;;7.00;100.00;99427.84;5068122;28;20052;-49
2024/01/21 00:52:22;;;;;;;1.67;0.50;;;;;;;6.98;100.00;99429.34;5054882;28;20053;-47
2024/01/21 00:54:49;;;;;;;0.40;0.40;;;;;;;6.95;100.00;99430.03;5034322;28;20604;-50
2024/01/21 00:57:17;;;;;;;3.88;0.40;;;;;;;6.93;100.00;99416.66;5061390;28;20041;-50
2024/01/21 00:59:44;;;;;;;1.17;0.63;;;;;;;6.89;100.00;99420.44;5060705;28;20525;-48
2024/01/21 01:02:11;;;;;;;2.20;0.70;;;;;;;6.86;100.00;99405.44;5049598;28;20454;-47
2024/01/21 01:04:58;;;;;;;0.60;0.40;;;;;;;6.84;100.00;99387.69;5146517;27;20143;-45
2024/01/21 01:07:25;;;;;;;1.23;0.55;;;;;;;6.80;100.00;99362.06;5125782;28;20051;-45
2024/01/21 01:09:54;;;;;;;1.77;0.43;;;;;;;6.76;100.00;99370.22;5125745;28;20089;-50
2024/01/21 01:12:21;;;;;;;1.48;0.40;;;;;;;6.73;100.00;99371.72;5124953;28;20058;-47
2024/01/21 01:14:49;;;;;;;1.42;0.40;;;;;;;6.69;100.00;99373.59;5127041;27;20047;-46
2024/01/21 01:17:16;;;;;;;3.38;2.03;;;;;;;6.66;100.00;99371.53;5136013;27;20039;-45
2024/01/21 01:19:44;;;;;;;1.00;0.50;;;;;;;6.64;100.00;99376.59;5124545;27;20413;-47
2024/01/21 01:22:12;;;;;;;2.60;0.68;;;;;;;6.63;100.00;99374.97;5125155;28;20047;-45
2024/01/21 01:24:39;;;;;;;2.83;0.52;;;;;;;6.59;100.00;99368.56;5119244;28;20059;-51
2024/01/21 01:27:07;;;;;;;4.03;0.50;;;;;;;6.57;100.00;99362.63;5121687;28;20054;-50
2024/01/21 01:29:35;;;;;;;2.10;0.82;;;;;;;6.55;100.00;99348.44;5138400;27;20050;-49
2024/01/21 01:32:05;;;;;;;2.35;0.50;;;;;;;6.54;100.00;99357.84;5116268;28;20135;-47
2024/01/21 01:34:32;;;;;;;4.70;0.80;;;;;;;6.52;100.00;99359.34;5123652;28;20044;-49
2024/01/21 01:37:00;;;;;;;6.60;0.60;;;;;;;6.50;100.00;99345.97;5110367;28;20048;-47
2024/01/21 01:39:28;;;;;;;5.78;0.68;;;;;;;6.49;100.00;99347.09;5113843;28;20054;-49
2024/01/21 01:41:55;;;;;;;0.85;0.55;;;;;;;6.47;100.00;99343.09;5125181;28;20044;-48
2024/01/21 01:44:22;;;;;;;4.13;0.70;;;;;;;6.46;100.00;99342.28;5135526;27;20051;-49
2024/01/21 01:46:50;;;;;;;1.23;0.50;;;;;;;6.46;100.00;99345.03;5093534;28;20545;-46
2024/01/21 01:49:19;;;;;;;1.65;0.60;;;;;;;6.44;100.00;99352.84;5107240;28;20035;-45
2024/01/21 01:51:46;;;;;;;5.25;0.73;;;;;;;6.43;100.00;99351.28;5117100;27;20056;-45
2024/01/21 01:54:16;;;;;;;3.65;0.77;;;;;;;6.44;100.00;99341.84;5124953;28;20689;-45
2024/01/21 01:56:44;;;;;;;3.78;1.65;;;;;;;6.45;100.00;99342.66;5124711;28;20050;-45
2024/01/21 01:59:13;;;;;;;8.02;1.20;;;;;;;6.44;100.00;99341.06;5124963;27;20053;-46
2024/01/21 02:01:40;;;;;;;9.25;0.70;;;;;;;6.42;100.00;99338.66;5123902;28;20039;-47
2024/01/21 02:04:09;;;;;;;2.70;0.73;;;;;;;6.41;100.00;99345.31;5129448;27;20086;-48
2024/01/21 02:06:37;;;;;;;4.63;0.70;;;;;;;6.41;100.00;99339.00;5124344;28;20054;-47
2024/01/21 02:09:05;;;;;;;6.10;1.00;;;;;;;6.40;100.00;99337.44;5124992;28;20043;-49
2024/01/21 02:11:33;;;;;;;3.83;0.70;;;;;;;6.40;100.00;99335.47;5124184;28;20054;-46
2024/01/21 02:14:00;;;;;;;2.88;0.60;;;;;;;6.41;100.00;99345.31;5106352;28;20043;-45
2024/01/21 02:16:28;;;;;;;4.43;0.85;;;;;;;6.41;100.00;99333.50;5109885;28;20048;-49
2024/01/21 02:18:55;;;;;;;5.45;1.48;;;;;;;6.41;100.00;99323.31;5114277;27;20048;-48
2024/01/21 02:21:22;;;;;;;5.25;1.02;;;;;;;6.41;100.00;99328.81;5110346;28;20519;-49
2024/01/21 02:23:50;;;;;;;2.92;0.73;;;;;;;6.41;100.00;99317.81;5110307;28;20054;-47
2024/01/21 02:26:17;;;;;;;5.30;2.38;;;;;;;6.43;100.00;99317.47;5105064;28;20074;-47
2024/01/21 02:28:45;;;;;;;3.97;0.73;;;;;;;6.44;100.00;99314.38;5084623;28;20051;-46
2024/01/21 02:31:12;;;;;;;2.08;0.43;;;;;;;6.45;100.00;99321.47;5110110;28;20061;-46
2024/01/21 02:33:39;;;;;;;6.90;1.15;;;;;;;6.46;100.00;99325.81;5110128;27;20090;-46
2024/01/21 02:36:07;;;;;;;4.78;0.40;;;;;;;6.47;100.00;99321.91;5109652;28;20050;-46
2024/01/21 02:38:35;;;;;;;1.20;0.47;;;;;;;6.45;100.00;99321.47;5109999;28;21016;-47
2024/01/21 02:41:02;;;;;;;2.55;0.63;;;;;;;6.44;100.00;99327.31;5109875;28;20547;-47
2024/01/21 02:43:29;;;;;;;4.82;0.40;;;;;;;6.43;100.00;99322.97;5071392;28;20048;-49
2024/01/21 02:45:57;;;;;;;2.63;1.42;;;;;;;6.41;100.00;99326.06;5106407;27;20059;-47
2024/01/21 02:48:24;;;;;;;6.68;1.48;;;;;;;6.43;100.00;99329.28;5117215;27;20059;-47
2024/01/21 02:50:51;;;;;;;1.65;0.95;;;;;;;6.43;100.00;99328.47;5109619;28;20044;-50
2024/01/21 02:53:19;;;;;;;3.20;0.70;;;;;;;6.42;100.00;99341.41;5113433;27;20505;-45
2024/01/21 02:55:46;;;;;;;1.30;0.50;;;;;;;6.42;100.00;99340.63;5098261;28;20058;-48
2024/01/21 02:58:13;;;;;;;1.05;0.50;;;;;;;6.43;100.00;99355.97;5088707;28;20062;-47
2024/01/21 03:00:41;;;;;;;2.85;0.60;;;;;;;6.42;100.00;99352.41;5090811;22;20027;-50
2024/01/21 03:03:10;;;;;;;4.57;0.93;;;;;;;6.44;100.00;99355.59;5043635;28;20053;-51
2024/01/21 03:05:38;;;;;;;0.65;0.25;;;;;;;6.43;100.00;99354.03;5049051;28;20056;-48
2024/01/21 03:08:06;;;;;;;2.30;0.93;;;;;;;6.43;100.00;99354.03;5042852;28;20061;-51
2024/01/21 03:10:34;;;;;;;0.98;0.70;;;;;;;6.43;100.00;99354.03;5040061;28;20525;-49
2024/01/21 03:13:01;;;;;;;1.88;0.43;;;;;;;6.44;100.00;99344.59;5031045;28;20049;-51
2024/01/21 03:15:29;;;;;;;2.13;1.13;;;;;;;6.43;100.00;99340.28;5048763;28;20049;-52
2024/01/21 03:17:56;;;;;;;0.40;0.40;;;;;;;6.44;100.00;99333.63;5030205;28;20041;-48
2024/01/21 03:20:24;;;;;;;3.35;0.52;;;;;;;6.45;100.00;99335.22;5046992;28;20048;-51
2024/01/21 03:22:52;;;;;;;1.00;0.50;;;;;;;6.46;100.00;99328.56;5030402;28;20037;-52
2024/01/21 03:25:20;;;;;;;2.67;0.80;;;;;;;6.45;100.00;99335.22;5048950;28;20055;-50
2024/01/21 03:27:47;;;;;;;3.80;0.40;;;;;;;6.45;100.00;99329.72;5040197;28;20059;-50
2024/01/21 03:30:16;;;;;;;3.20;0.77;;;;;;;6.45;100.00;99324.22;5046281;28;20638;-53
2024/01/21 03:32:43;;;;;;;1.95;0.65;;;;;;;6.46;100.00;99308.53;5041626;28;20053;-50
2024/01/21 03:35:11;;;;;;;1.42;0.80;;;;;;;6.47;100.00;99318.38;5042054;28;20052;-52
2024/01/21 03:37:38;;;;;;;2.08;1.20;;;;;;;6.47;100.00;99310.13;5047726;28;20048;-49
2024/01/21 03:40:06;;;;;;;8.50;1.40;;;;;;;6.49;100.00;99303.13;5029981;28;20056;-52
2024/01/21 03:42:33;;;;;;;1.38;1.02;;;;;;;6.49;100.00;99300.38;5045127;28;20060;-49
2024/01/21 03:45:01;;;;;;;6.35;0.95;;;;;;;6.51;100.00;99298.06;5048242;28;20060;-50
2024/01/21 03:47:28;;;;;;;2.15;0.95;;;;;;;6.53;100.00;99293.03;5047171;28;20049;-51
2024/01/21 03:49:56;;;;;;;6.68;1.50;;;;;;;6.54;100.00;99278.09;5047407;28;20049;-55
2024/01/21 03:52:23;;;;;;;2.05;0.80;;;;;;;6.58;100.00;99283.69;5048017;28;20045;-48
2024/01/21 03:54:50;;;;;;;2.85;1.17;;;;;;;6.60;100.00;99282.19;5047340;28;20395;-51
2024/01/21 03:57:18;;;;;;;3.47;1.15;;;;;;;6.60;100.00;99298.69;5047929;28;20056;-48
2024/01/21 03:59:48;;;;;;;5.28;1.90;;;;;;;6.63;100.00;99286.19;5029417;28;20060;-54
2024/01/21 04:02:15;;;;;;;6.28;1.40;;;;;;;6.65;100.00;99295.69;5046965;28;20045;-50
2024/01/21 04:04:44;;;;;;;5.43;1.40;;;;;;;6.69;100.00;99291.09;5046489;28;20037;-50
2024/01/21 04:07:12;;;;;;;10.25;1.40;;;;;;;6.72;100.00;99295.84;5047331;28;20048;-48
2024/01/21 04:09:39;;;;;;;6.40;1.30;;;;;;;6.75;100.00;99300.63;5029469;28;20510;-48
2024/01/21 04:12:11;;;;;;;7.68;0.82;;;;;;;6.75;100.00;99306.16;5047320;28;20522;-48
2024/01/21 04:14:39;;;;;;;7.20;1.23;;;;;;;6.78;100.00;99285.38;5023373;28;20037;-54
2024/01/21 04:17:06;;;;;;;4.63;1.10;;;;;;;6.79;100.00;99289.75;5046399;28;20052;-52
2024/01/21 04:19:34;;;;;;;3.97;1.00;;;;;;;6.80;100.00;99287.78;5034451;28;20538;-51
2024/01/21 04:22:01;;;;;;;4.45;1.30;;;;;;;6.82;100.00;99296.47;5045127;28;20057;-52
2024/01/21 04:24:29;;;;;;;9.70;1.50;;;;;;;6.82;100.00;99294.53;5044122;28;20052;-51
2024/01/21 04:26:57;;;;;;;2.40;1.13;;;;;;;6.84;100.00;99289.47;5045662;28;20053;-52
2024/01/21 04:29:24;;;;;;;5.43;1.23;;;;;;;6.86;100.00;99278.13;5046773;28;20067;-49
2024/01/21 04:31:51;;;;;;;6.78;1.60;;;;;;;6.86;100.00;99291.88;5036990;28;20071;-52
2024/01/21 04:34:19;;;;;;;8.00;2.03;;;;;;;6.88;100.00;99290.38;5042551;28;20799;-49
2024/01/21 04:36:47;;;;;;;9.25;3.10;;;;;;;6.88;100.00;99304.13;5047108;28;20060;-54
2024/01/21 04:39:19;;;;;;;7.03;1.30;;;;;;;6.90;100.00;99304.56;5046600;28;20047;-50
2024/01/21 04:41:46;;;;;;;5.40;1.50;;;;;;;6.92;100.00;99304.19;5028985;28;20052;-49
2024/01/21 04:44:14;;;;;;;6.85;1.02;;;;;;;6.91;100.00;99319.91;5047200;28;20588;-53
2024/01/21 04:46:41;;;;;;;7.75;1.17;;;;;;;6.93;100.00;99300.28;5047602;28;20052;-51
2024/01/21 04:49:08;;;;;;;9.10;1.30;;;;;;;6.93;100.00;99303.03;5046631;28;20037;-50
2024/01/21 04:51:37;;;;;;;6.72;1.58;;;;;;;6.93;100.00;99300.28;5047316;28;20522;-48
2024/01/21 04:54:05;;;;;;;3.88;1.20;;;;;;;6.96;100.00;99307.84;5041275;28;20049;-53
2024/01/21 04:56:33;;;;;;;5.20;1.20;;;;;;;6.96;100.00;99310.59;5045974;28;20041;-52
2024/01/21 04:59:02;;;;;;;6.63;1.60;;;;;;;6.98;100.00;99313.78;5047280;28;20049;-53
2024/01/21 05:01:29;;;;;;;9.68;1.00;;;;;;;6.98;100.00;99308.28;5046591;28;20060;-50
2024/01/21 05:03:57;;;;;;;5.03;1.60;;;;;;;7.01;100.00;99311.13;5029355;28;20045;-49
2024/01/21 05:06:24;;;;;;;5.82;1.23;;;;;;;7.02;100.00;99298.94;5045840;28;20525;-52
2024/01/21 05:08:51;;;;;;;9.80;2.25;;;;;;;7.02;100.00;99315.47;5044693;28;20783;-49
2024/01/21 05:11:19;;;;;;;3.15;1.20;;;;;;;7.03;100.00;99310.75;5042082;28;20100;-50
2024/01/21 05:13:46;;;;;;;7.72;1.50;;;;;;;7.02;100.00;99306.41;5046255;28;20060;-50
2024/01/21 05:16:18;;;;;;;4.50;1.23;;;;;;;7.02;100.00;99304.44;5025935;28;20059;-48
2024/01/21 05:18:46;;;;;;;5.13;1.13;;;;;;;7.01;100.00;99302.88;5046475;28;20053;-48
2024/01/21 05:21:20;;;;;;;6.97;1.38;;;;;;;7.03;100.00;99305.25;5044469;28;20059;-49
2024/01/21 05:23:51;;;;;;;6.45;1.23;;;;;;;7.03;100.00;99302.50;5044828;28;20052;-49
2024/01/21 05:26:18;;;;;;;8.80;1.25;;;;;;;7.02;100.00;99300.91;5046512;28;20045;-50
2024/01/21 05:28:46;;;;;;;5.40;1.30;;;;;;;7.01;100.00;99288.31;5046757;28;20045;-47
2024/01/21 05:31:14;;;;;;;9.98;2.47;;;;;;;6.99;100.00;99293.38;5045458;28;20391;-52
2024/01/21 05:33:43;;;;;;;5.10;0.98;;;;;;;6.97;100.00;99295.66;5047056;28;20102;-49
2024/01/21 05:36:10;;;;;;;7.90;1.38;;;;;;;6.96;100.00;99283.09;5045842;28;20067;-54
2024/01/21 05:38:38;;;;;;;11.35;0.93;;;;;;;6.94;100.00;99277.13;5044172;28;20042;-53
2024/01/21 05:41:05;;;;;;;4.22;0.90;;;;;;;6.93;100.00;99278.28;5045087;28;20084;-52
2024/01/21 05:43:32;;;;;;;5.65;1.33;;;;;;;6.92;100.00;99276.69;5040012;28;20049;-51
2024/01/21 05:46:00;;;;;;;10.40;2.20;;;;;;;6.89;100.00;99280.13;5045290;28;20049;-53
2024/01/21 05:48:27;;;;;;;6.75;1.50;;;;;;;6.91;100.00;99283.34;5029179;28;20080;-53
2024/01/21 05:50:55;;;;;;;13.30;1.55;;;;;;;6.91;100.00;99275.09;5049046;28;20045;-49
2024/01/21 05:53:22;;;;;;;4.40;1.30;;;;;;;6.92;100.00;99280.22;5048255;28;20430;-54
2024/01/21 05:55:49;;;;;;;6.40;0.90;;;;;;;6.94;100.00;99280.66;5050905;28;20060;-50
2024/01/21 05:58:17;;;;;;;9.38;1.65;;;;;;;6.97;100.00;99274.47;5031421;28;20063;-52
2024/01/21 06:00:44;;;;;;;11.18;1.40;;;;;;;6.96;100.00;99272.88;5050304;28;20041;-54
2024/01/21 06:03:11;;;;;;;9.30;1.42;;;;;;;6.96;100.00;99274.81;5048847;28;20060;-48
2024/01/21 06:05:39;;;;;;;8.13;1.23;;;;;;;6.94;100.00;99275.16;5045628;28;20044;-50
2024/01/21 06:08:06;;;;;;;10.25;0.93;;;;;;;6.96;100.00;99272.06;5049458;28;20053;-52
2024/01/21 06:10:33;;;;;;;4.07;0.90;;;;;;;6.95;100.00;99275.97;5039866;28;20045;-50
2024/01/21 06:13:01;;;;;;;8.07;2.15;;;;;;;6.93;100.00;99267.28;5043890;28;20398;-52
2024/01/21 06:15:28;;;;;;;6.38;1.10;;;;;;;6.93;100.00;99287.34;5049485;28;20060;-54
2024/01/21 06:17:55;;;;;;;5.55;1.67;;;;;;;6.93;100.00;99267.28;5049726;28;20053;-50
2024/01/21 06:20:23;;;;;;;6.18;1.38;;;;;;;6.93;100.00;99272.78;5049641;28;20041;-49
2024/01/21 06:22:50;;;;;;;7.60;1.75;;;;;;;6.94;100.00;99260.59;5045966;28;20060;-54
2024/01/21 06:25:17;;;;;;;8.45;1.67;;;;;;;6.94;100.00;99252.34;5049540;28;20052;-50
2024/01/21 06:27:49;;;;;;;3.33;0.93;;;;;;;6.95;100.00;99254.75;5048517;28;20076;-53
2024/01/21 06:30:19;;;;;;;6.80;1.83;;;;;;;6.96;100.00;99255.56;5048704;28;20045;-49
2024/01/21 06:32:47;;;;;;;7.68;1.85;;;;;;;6.96;100.00;99264.63;5049089;28;20572;-49
2024/01/21 06:35:28;;;;;;;6.40;1.63;;;;;;;6.99;100.00;99263.88;5048874;28;20052;-49
2024/01/21 06:37:56;;;;;;;4.68;1.27;;;;;;;7.02;100.00;99248.63;5033533;28;20045;-50
2024/01/21 06:40:23;;;;;;;5.15;1.85;;;;;;;7.05;100.00;99237.69;5049134;28;20045;-48
2024/01/21 06:42:51;;;;;;;12.88;4.13;;;;;;;7.08;100.00;99234.22;5043438;28;20056;-49
2024/01/21 06:45:19;;;;;;;11.98;2.00;;;;;;;7.09;100.00;99238.59;5048561;28;20045;-53
2024/01/21 06:47:46;;;;;;;10.95;1.80;;;;;;;7.10;100.00;99233.88;5048740;28;20045;-52
2024/01/21 06:50:13;;;;;;;8.85;1.83;;;;;;;7.11;100.00;99238.22;5047493;28;20049;-50
2024/01/21 06:52:41;;;;;;;11.07;1.83;;;;;;;7.14;100.00;99221.00;5049671;28;20414;-49
2024/01/21 06:55:08;;;;;;;16.77;2.55;;;;;;;7.13;100.00;99206.44;5047924;28;20044;-52
2024/01/21 06:57:36;;;;;;;5.03;1.40;;;;;;;7.15;100.00;99230.84;5048634;28;20044;-50
2024/01/21 07:00:05;;;;;;;10.32;1.45;;;;;;;7.15;100.00;99214.31;5044712;28;20399;-52
2024/01/21 07:02:33;;;;;;;11.73;1.73;;;;;;;7.18;100.00;99205.34;5031155;28;20060;-54
2024/01/21 07:05:00;;;;;;;10.40;1.90;;;;;;;7.19;100.00;99201.44;5048426;28;20087;-52
2024/01/21 07:07:27;;;;;;;10.25;2.38;;;;;;;7.21;100.00;99193.63;5048494;28;20037;-51
2024/01/21 07:09:55;;;;;;;9.13;2.05;;;;;;;7.23;100.00;99205.06;5049456;28;20037;-51
2024/01/21 07:12:22;;;;;;;12.25;2.83;;;;;;;7.26;100.00;99198.84;5047049;28;20049;-53
2024/01/21 07:14:52;;;;;;;13.10;1.98;;;;;;;7.29;100.00;99193.41;5048259;28;20049;-54
2024/01/21 07:17:20;;;;;;;6.32;1.77;;;;;;;7.31;100.00;99193.03;5046770;28;20049;-50
2024/01/21 07:19:52;;;;;;;8.48;2.08;;;;;;;7.31;100.00;99185.59;5048034;28;20605;-53
2024/01/21 07:22:20;;;;;;;7.00;1.70;;;;;;;7.32;100.00;99187.19;5047370;28;20049;-51
2024/01/21 07:24:48;;;;;;;13.23;2.92;;;;;;;7.36;100.00;99198.25;5047603;28;20041;-49
2024/01/21 07:27:15;;;;;;;7.22;2.22;;;;;;;7.40;100.00;99174.38;5036372;28;20053;-51
2024/01/21 07:29:42;;;;;;;8.65;2.75;;;;;;;7.43;100.00;99181.13;5048645;28;20049;-52
2024/01/21 07:32:10;;;;;;;10.35;1.88;;;;;;;7.45;100.00;99165.81;5026193;28;20053;-49
2024/01/21 07:34:37;;;;;;;5.05;2.08;;;;;;;7.47;100.00;99171.75;5047638;28;20048;-55
2024/01/21 07:37:05;;;;;;;9.32;2.10;;;;;;;7.50;100.00;99175.75;5048808;28;20041;-51
2024/01/21 07:39:32;;;;;;;7.82;1.98;;;;;;;7.51;100.00;99161.63;5021266;28;20514;-47
2024/01/21 07:42:00;;;;;;;15.43;2.85;;;;;;;7.53;100.00;99166.75;5046597;28;20064;-53
2024/01/21 07:44:27;;;;;;;10.38;2.10;;;;;;;7.56;100.00;99169.59;5047101;28;20045;-50
2024/01/21 07:46:54;;;;;;;11.65;2.05;;;;;;;7.58;100.00;99147.97;5047652;28;20431;-50
2024/01/21 07:49:22;;;;;;;11.98;2.78;;;;;;;7.59;100.00;99141.31;5030555;28;20044;-51
2024/01/21 07:51:49;;;;;;;13.40;2.63;;;;;;;7.61;100.00;99139.00;5048258;28;20053;-52
2024/01/21 07:54:17;;;;;;;13.18;2.00;;;;;;;7.62;100.00;99135.09;5047311;28;20533;-51
2024/01/21 07:56:44;;;;;;;11.43;2.67;;;;;;;7.64;100.00;99148.50;5047000;28;20049;-52
2024/01/21 07:59:12;;;;;;;19.85;3.28;;;;;;;7.65;100.00;99123.31;5043932;28;20049;-52
2024/01/21 08:01:39;;;;;;;13.43;2.78;;;;;;;7.67;100.00;99154.06;5047193;28;20053;-51
2024/01/21 08:04:08;;;;;;;18.88;2.28;;;;;;;7.69;100.00;99162.75;5047477;28;20048;-51
2024/01/21 08:06:35;;;;;;;16.50;2.45;;;;;;;7.71;100.00;99137.59;5046648;28;20059;-53
2024/01/21 08:09:03;;;;;;;11.55;1.95;;;;;;;7.74;100.00;99132.16;5046937;28;20049;-53
2024/01/21 08:11:30;;;;;;;26.38;2.90;;;;;;;7.78;100.00;99138.53;5047888;28;20055;-49
2024/01/21 08:13:58;;;;;;;20.58;4.03;;;;;;;7.78;100.00;99129.47;5046343;28;20037;-53
2024/01/21 08:16:26;;;;;;;12.50;3.88;;;;;;;7.79;100.00;99129.09;5045981;28;20041;-53
2024/01/21 08:18:53;;;;;;;15.35;4.03;;;;;;;7.83;100.00;99118.16;5047336;28;20063;-49
2024/01/21 08:21:20;;;;;;;10.10;3.35;;;;;;;7.86;100.00;99126.47;5047604;28;20044;-54
2024/01/21 08:23:48;;;;;;;13.70;2.92;;;;;;;7.88;100.00;99126.91;5042279;28;20060;-50
2024/01/21 08:26:16;;;;;;;19.08;3.28;;;;;;;7.90;100.00;99130.09;5041569;28;20056;-51
2024/01/21 08:28:43;;;;;;;14.20;3.33;;;;;;;7.96;100.00;99134.16;5047479;28;20706;-49
2024/01/21 08:31:11;;;;;;;26.52;3.58;;;;;;;8.04;100.00;99110.25;5035124;28;20045;-52
2024/01/21 08:33:38;;;;;;;12.02;3.33;;;;;;;8.09;100.00;99100.88;5046970;28;20057;-52
2024/01/21 08:36:07;;;;;;;18.48;3.58;;;;;;;8.16;100.00;99090.78;5045555;28;20407;-51
2024/01/21 08:38:36;;;;;;;20.85;2.97;;;;;;;8.25;100.00;99096.84;5047435;28;20057;-51
2024/01/21 08:41:03;;;;;;;25.60;5.63;;;;;;;8.33;100.00;99089.50;5047485;28;20052;-54
2024/01/21 08:43:30;;;;;;;21.65;4.25;;;;;;;8.39;100.00;99080.53;5024459;28;20049;-53
2024/01/21 08:45:58;;;;;;;15.88;3.38;;;;;;;8.45;100.00;99078.25;5047023;28;20061;-49
2024/01/21 08:48:26;;;;;;;22.42;4.88;;;;;;;8.50;100.00;99080.69;5045247;28;20402;-51
2024/01/21 08:50:55;;;;;;;25.52;4.22;;;;;;;8.53;100.00;99041.31;5047466;28;20053;-51
2024/01/21 08:53:22;;;;;;;20.45;3.67;;;;;;;8.56;100.00;99046.09;5047248;28;20114;-52
2024/01/21 08:55:50;;;;;;;17.20;4.40;;;;;;;8.56;100.00;99040.59;5021311;28;20076;-50
2024/01/21 08:58:17;;;;;;;20.88;3.83;;;;;;;8.61;100.00;99029.22;5040451;28;20517;-49
2024/01/21 09:00:44;;;;;;;18.35;3.80;;;;;;;8.67;100.00;99033.25;5036099;28;20052;-50
2024/01/21 09:03:13;;;;;;;28.70;4.50;;;;;;;8.69;100.00;99011.59;5047042;28;20733;-51
2024/01/21 09:05:41;;;;;;;33.40;5.72;;;;;;;8.71;100.00;99020.28;5047432;28;20049;-48
2024/01/21 09:08:09;;;;;;;26.70;3.80;;;;;;;8.74;100.00;99014.03;5043887;28;20060;-52
2024/01/21 09:10:36;;;;;;;16.92;4.00;;;;;;;8.78;100.00;98997.53;5027428;28;20336;-52
2024/01/21 09:13:04;;;;;;;25.75;5.43;;;;;;;8.82;100.00;98971.56;5041703;28;20056;-48
2024/01/21 09:15:31;;;;;;;17.30;5.25;;;;;;;8.85;100.00;98970.00;5041384;28;20052;-50
2024/01/21 09:17:59;;;;;;;15.43;4.50;;;;;;;8.89;100.00;98976.38;5046755;28;20049;-53
2024/01/21 09:20:27;;;;;;;18.55;4.20;;;;;;;8.93;100.00;98966.97;5046948;28;20713;-53
2024/01/21 09:22:54;;;;;;;26.58;4.13;;;;;;;8.94;100.00;98949.25;5028774;28;20124;-47
2024/01/21 09:25:21;;;;;;;17.00;3.63;;;;;;;8.99;100.00;98959.94;5047496;28;20048;-51
2024/01/21 09:27:50;;;;;;;21.42;4.20;;;;;;;9.04;100.00;98929.22;5050942;28;20057;-56
2024/01/21 09:30:17;;;;;;;23.00;4.22;;;;;;;9.07;100.00;98934.00;5048974;28;20056;-56
2024/01/21 09:32:44;;;;;;;20.70;4.35;;;;;;;9.10;100.00;98924.97;5050987;28;20505;-51
2024/01/21 09:35:12;;;;;;;34.50;5.38;;;;;;;9.11;100.00;98932.06;5050759;28;20052;-52
2024/01/21 09:37:39;;;;;;;21.33;4.38;;;;;;;9.13;100.00;98920.66;5037301;28;20052;-55
2024/01/21 09:40:07;;;;;;;22.30;5.80;;;;;;;9.16;100.00;98912.38;5046396;28;20049;-52
2024/01/21 09:42:35;;;;;;;14.75;3.35;;;;;;;9.19;100.00;98908.88;5046715;28;20526;-53
2024/01/21 09:45:03;;;;;;;19.90;3.70;;;;;;;9.22;100.00;98923.06;5031875;28;20095;-48
2024/01/21 09:47:30;;;;;;;19.15;3.58;;;;;;;9.22;100.00;98912.03;5049677;28;20518;-49
2024/01/21 09:49:58;;;;;;;21.00;4.15;;;;;;;9.25;100.00;98891.94;5031889;28;20049;-51
2024/01/21 09:52:25;;;;;;;20.48;4.70;;;;;;;9.24;100.00;98893.91;5044890;28;20048;-50
2024/01/21 09:54:53;;;;;;;18.55;3.45;;;;;;;9.24;100.00;98871.06;5036730;28;20056;-52
2024/01/21 09:57:21;;;;;;;24.95;4.82;;;;;;;9.24;100.00;98865.53;5046972;28;20049;-51
2024/01/21 09:59:48;;;;;;;28.83;7.55;;;;;;;9.26;100.00;98852.13;5047793;28;20056;-50
2024/01/21 10:02:17;;;;;;;22.52;5.03;;;;;;;9.27;100.00;98843.44;5048903;28;20059;-54
2024/01/21 10:04:45;;;;;;;24.02;4.75;;;;;;;9.30;100.00;98833.59;5048840;28;20044;-52
2024/01/21 10:07:13;;;;;;;19.85;4.25;;;;;;;9.31;100.00;98818.63;5049384;28;20057;-50
2024/01/21 10:09:40;;;;;;;17.98;3.47;;;;;;;9.31;100.00;98819.44;5049596;28;20084;-52
2024/01/21 10:12:08;;;;;;;16.88;4.78;;;;;;;9.33;100.00;98808.78;5043226;28;20059;-52
2024/01/21 10:14:36;;;;;;;17.67;5.80;;;;;;;9.33;100.00;98803.25;5038270;28;20045;-53
2024/01/21 10:17:03;;;;;;;14.98;3.75;;;;;;;9.35;100.00;98800.09;5049799;28;20053;-53
2024/01/21 10:19:33;;;;;;;13.75;3.38;;;;;;;9.37;100.00;98795.78;5046122;28;20037;-49
2024/01/21 10:22:16;;;;;;;18.35;5.55;;;;;;;9.39;100.00;98778.84;5041584;28;20059;-52
2024/01/21 10:24:45;;;;;;;13.68;3.85;;;;;;;9.39;100.00;98763.06;5047639;28;20494;-51
2024/01/21 10:27:13;;;;;;;20.63;3.58;;;;;;;9.42;100.00;98761.50;5048253;28;20045;-48
2024/01/21 10:29:43;;;;;;;19.90;6.20;;;;;;;9.46;100.00;98757.59;5049348;28;20052;-49
2024/01/21 10:32:14;;;;;;;20.08;3.67;;;;;;;9.50;100.00;98730.00;5044738;28;20045;-50
2024/01/21 10:34:49;;;;;;;11.27;3.22;;;;;;;9.56;100.00;98722.91;5040147;28;20052;-52
2024/01/21 10:37:17;;;;;;;8.52;2.90;;;;;;;9.61;100.00;98687.41;5047623;28;20041;-53
2024/01/21 10:39:46;;;;;;;13.82;3.75;;;;;;;9.68;100.00;98720.59;5047757;28;20056;-52
2024/01/21 10:42:14;;;;;;;13.15;2.63;;;;;;;9.74;100.00;98701.69;5030554;28;20049;-53
2024/01/21 10:44:46;;;;;;;16.27;4.18;;;;;;;9.79;100.00;98690.25;5048782;28;20235;-53
2024/01/21 10:47:15;;;;;;;16.52;3.47;;;;;;;9.84;100.00;98670.53;5047993;28;20057;-53
2024/01/21 10:49:45;;;;;;;11.25;3.50;;;;;;;9.90;100.00;98619.19;5047102;28;20510;-51
2024/01/21 10:52:14;;;;;;;9.93;3.17;;;;;;;9.97;100.00;98666.22;5047520;28;20041;-55
2024/01/21 10:54:43;;;;;;;12.45;2.65;;;;;;;10.05;100.00;98658.72;5044755;28;20048;-52
2024/01/21 10:57:11;;;;;;;13.63;2.03;;;;;;;10.10;100.00;98645.31;5043230;28;20573;-55
2024/01/21 10:59:38;;;;;;;11.57;2.38;;;;;;;10.15;100.00;98636.66;5035557;28;20057;-51
2024/01/21 11:02:10;;;;;;;13.40;2.30;;;;;;;10.19;100.00;98629.13;5041272;28;20049;-53
2024/01/21 11:04:37;;;;;;;11.55;2.67;;;;;;;10.21;100.00;98612.97;5037855;28;20057;-51
2024/01/21 11:07:05;;;;;;;9.35;3.10;;;;;;;10.27;100.00;98619.66;5040853;28;20041;-50
2024/01/21 11:09:36;;;;;;;11.57;1.85;;;;;;;10.28;100.00;98637.06;5037195;28;20049;-52
2024/01/21 11:12:04;;;;;;;8.85;2.50;;;;;;;10.30;100.00;98601.50;5042990;28;20063;-53
2024/01/21 11:14:39;;;;;;;11.80;2.58;;;;;;;10.30;100.00;98590.41;5043841;28;20525;-52
2024/01/21 11:17:10;;;;;;;10.23;3.28;;;;;;;10.29;100.00;98600.72;5035969;28;20041;-52
2024/01/21 11:19:44;;;;;;;11.05;2.33;;;;;;;10.30;100.00;98563.56;5046897;28;20052;-50
2024/01/21 11:22:12;;;;;;;11.98;2.60;;;;;;;10.32;100.00;98552.91;5040708;28;20060;-52
2024/01/21 11:24:45;;;;;;;17.05;3.53;;;;;;;10.34;100.00;98564.38;5048499;28;20055;-53
2024/01/21 11:27:18;;;;;;;13.48;3.03;;;;;;;10.37;100.00;98563.56;5048349;28;20131;-51
2024/01/21 11:29:57;;;;;;;12.45;2.25;;;;;;;10.40;100.00;98534.34;5048364;28;20057;-55
2024/01/21 11:32:30;;;;;;;11.65;3.08;;;;;;;10.40;100.00;98524.03;5027368;28;20044;-51